Time;durP1;ratioP1;P1;durP2;ratioP2;P2;SDS_P1;SDS_P2;PMS_P1;PMS_P2;Temp;Humidity;BMP_temperature;BMP_pressure;BME280_temperature;BME280_humidity;BME280_pressure;Samples;Min_cycle;Max_cycle;Signal;HPM_P1;HPM_P2
2023/11/04 00:02:25;;;;;;;15.40;7.67;;;3.20;99.90;;;;;;5045722;28;20410;-55
2023/11/04 00:04:51;;;;;;;15.70;8.17;;;3.20;99.90;;;;;;5039091;28;20423;-55
2023/11/04 00:07:17;;;;;;;15.70;8.00;;;3.30;99.90;;;;;;5051222;28;20456;-55
2023/11/04 00:09:44;;;;;;;13.27;7.13;;;3.30;99.90;;;;;;5055859;28;20413;-55
2023/11/04 00:12:11;;;;;;;14.03;6.60;;;3.40;99.90;;;;;;5031832;28;20441;-55
2023/11/04 00:14:37;;;;;;;10.47;6.47;;;3.40;99.90;;;;;;5036335;28;20461;-55
2023/11/04 00:17:02;;;;;;;11.23;6.77;;;3.50;99.90;;;;;;5049629;28;20780;-55
2023/11/04 00:19:28;;;;;;;10.60;6.70;;;3.60;99.90;;;;;;5053858;28;20226;-54
2023/11/04 00:21:53;;;;;;;8.93;5.70;;;3.60;99.90;;;;;;5048573;28;20196;-54
2023/11/04 00:24:19;;;;;;;9.57;4.90;;;3.70;99.90;;;;;;5050290;28;20171;-54
2023/11/04 00:26:45;;;;;;;7.80;4.50;;;3.70;99.90;;;;;;5045044;28;20195;-54
2023/11/04 00:29:11;;;;;;;5.57;3.90;;;3.80;99.90;;;;;;5045848;28;20649;-55
2023/11/04 00:31:36;;;;;;;5.80;3.97;;;3.90;99.90;;;;;;5042464;28;20426;-56
2023/11/04 00:34:02;;;;;;;6.27;4.13;;;3.90;99.90;;;;;;5056129;28;20203;-56
2023/11/04 00:36:29;;;;;;;6.77;4.10;;;4.00;99.90;;;;;;5050453;28;20313;-56
2023/11/04 00:38:54;;;;;;;5.20;4.20;;;4.00;99.90;;;;;;5045540;28;21109;-54
2023/11/04 00:41:20;;;;;;;5.80;4.23;;;4.00;99.90;;;;;;5043746;28;20449;-55
2023/11/04 00:43:46;;;;;;;5.40;4.13;;;4.10;99.90;;;;;;5037967;28;20180;-56
2023/11/04 00:46:12;;;;;;;5.87;4.00;;;4.10;99.90;;;;;;5053495;28;20178;-54
2023/11/04 00:48:38;;;;;;;4.47;3.87;;;4.10;99.90;;;;;;5039771;28;20442;-54
2023/11/04 00:51:04;;;;;;;5.13;3.93;;;4.10;99.90;;;;;;5045978;28;20513;-55
2023/11/04 00:53:29;;;;;;;7.13;4.33;;;4.10;99.90;;;;;;5044869;28;20482;-54
2023/11/04 00:55:55;;;;;;;6.20;4.33;;;4.20;99.90;;;;;;5052780;28;20461;-57
2023/11/04 00:58:21;;;;;;;8.43;4.80;;;4.20;99.90;;;;;;5041709;28;20189;-56
2023/11/04 01:00:46;;;;;;;9.17;4.80;;;4.20;99.90;;;;;;5043140;28;20166;-55
2023/11/04 01:03:12;;;;;;;5.50;4.40;;;4.30;99.90;;;;;;5044117;28;20183;-54
2023/11/04 01:05:37;;;;;;;6.70;4.23;;;4.30;99.90;;;;;;5044256;28;20167;-54
2023/11/04 01:08:04;;;;;;;6.20;4.83;;;4.30;99.90;;;;;;5031980;28;20195;-55
2023/11/04 01:10:30;;;;;;;6.53;5.07;;;4.30;99.90;;;;;;5026472;28;20184;-54
2023/11/04 01:12:56;;;;;;;9.50;5.03;;;4.40;99.90;;;;;;5031290;28;20430;-53
2023/11/04 01:15:21;;;;;;;8.33;5.07;;;4.40;99.90;;;;;;5036203;28;20434;-55
2023/11/04 01:17:47;;;;;;;9.00;5.10;;;4.40;99.90;;;;;;5037996;28;20191;-55
2023/11/04 01:20:12;;;;;;;9.23;5.23;;;4.40;99.90;;;;;;5035900;28;20649;-55
2023/11/04 01:22:38;;;;;;;6.93;5.10;;;4.40;99.90;;;;;;5029281;28;20180;-56
2023/11/04 01:25:05;;;;;;;11.33;5.07;;;4.50;99.90;;;;;;5037314;28;20559;-55
2023/11/04 01:27:30;;;;;;;6.83;4.80;;;4.50;99.90;;;;;;5034093;28;20191;-55
2023/11/04 01:29:56;;;;;;;6.90;4.40;;;4.50;99.90;;;;;;5040836;28;20491;-55
2023/11/04 01:32:21;;;;;;;13.20;6.27;;;4.50;99.90;;;;;;5028826;28;20190;-57
2023/11/04 01:34:47;;;;;;;9.07;5.37;;;4.50;99.90;;;;;;5034582;28;20712;-54
2023/11/04 01:37:13;;;;;;;7.70;5.13;;;4.50;99.90;;;;;;5034691;28;20194;-54
2023/11/04 01:39:39;;;;;;;10.33;5.70;;;4.60;99.90;;;;;;5025131;28;20180;-53
2023/11/04 01:42:06;;;;;;;9.90;6.40;;;4.50;99.90;;;;;;5032696;28;20928;-54
2023/11/04 01:44:32;;;;;;;10.70;6.50;;;4.50;99.90;;;;;;5030792;28;20501;-55
2023/11/04 01:46:58;;;;;;;7.70;5.47;;;4.50;99.90;;;;;;5035156;28;20445;-54
2023/11/04 01:49:25;;;;;;;11.90;6.60;;;4.50;99.90;;;;;;5024912;28;20462;-54
2023/11/04 01:51:51;;;;;;;10.00;6.20;;;4.50;99.90;;;;;;5029743;28;20784;-55
2023/11/04 01:54:18;;;;;;;10.87;7.20;;;4.40;99.90;;;;;;5027537;28;20799;-55
2023/11/04 01:56:44;;;;;;;12.60;6.93;;;4.40;99.90;;;;;;5027645;28;20445;-54
2023/11/04 01:59:12;;;;;;;14.47;7.77;;;4.40;99.90;;;;;;5030542;28;20437;-55
2023/11/04 02:01:40;;;;;;;11.73;6.17;;;4.40;99.90;;;;;;5031585;28;20814;-55
2023/11/04 02:04:06;;;;;;;21.20;6.40;;;4.40;99.90;;;;;;5029867;28;20471;-55
2023/11/04 02:06:32;;;;;;;10.50;6.70;;;4.40;99.90;;;;;;5031399;28;20423;-54
2023/11/04 02:08:58;;;;;;;8.37;5.90;;;4.40;99.90;;;;;;5028196;28;20560;-54
2023/11/04 02:11:24;;;;;;;9.60;5.53;;;4.40;99.90;;;;;;5036000;28;20528;-53
2023/11/04 02:13:49;;;;;;;6.93;4.90;;;4.40;99.90;;;;;;5026925;28;20224;-54
2023/11/04 02:16:15;;;;;;;9.00;5.10;;;4.50;99.90;;;;;;5034080;28;20417;-54
2023/11/04 02:18:41;;;;;;;7.53;5.17;;;4.50;99.90;;;;;;5031379;28;20177;-55
2023/11/04 02:21:06;;;;;;;5.10;4.60;;;4.50;99.90;;;;;;5029427;28;20172;-53
2023/11/04 02:23:32;;;;;;;6.30;4.50;;;4.50;99.90;;;;;;5029779;28;20214;-54
2023/11/04 02:25:58;;;;;;;4.87;4.13;;;4.60;99.90;;;;;;5041312;28;20197;-55
2023/11/04 02:28:23;;;;;;;8.93;4.40;;;4.60;99.90;;;;;;5027411;28;20196;-55
2023/11/04 02:30:49;;;;;;;4.20;3.90;;;4.60;99.90;;;;;;5028032;28;20179;-53
2023/11/04 02:33:16;;;;;;;8.13;5.63;;;4.60;99.90;;;;;;5026115;28;21130;-56
2023/11/04 02:35:42;;;;;;;12.07;6.10;;;4.70;99.90;;;;;;5028651;28;20167;-55
2023/11/04 02:38:08;;;;;;;8.87;5.60;;;4.60;99.90;;;;;;5033428;28;20450;-55
2023/11/04 02:40:34;;;;;;;8.03;5.40;;;4.60;99.90;;;;;;5029836;28;20426;-54
2023/11/04 02:42:59;;;;;;;6.37;5.43;;;4.60;99.90;;;;;;5026829;28;20179;-53
2023/11/04 02:45:25;;;;;;;9.97;5.90;;;4.60;99.90;;;;;;5033880;28;20167;-55
2023/11/04 02:47:51;;;;;;;7.20;5.40;;;4.60;99.90;;;;;;5034269;28;20182;-55
2023/11/04 02:50:17;;;;;;;8.07;5.17;;;4.60;99.90;;;;;;5029745;28;20425;-54
2023/11/04 02:52:43;;;;;;;9.97;4.90;;;4.60;99.90;;;;;;5029432;28;20174;-55
2023/11/04 02:55:09;;;;;;;11.57;6.10;;;4.60;99.90;;;;;;5036714;28;20458;-55
2023/11/04 02:57:35;;;;;;;9.63;5.50;;;4.60;99.90;;;;;;5036448;28;20738;-55
2023/11/04 03:00:00;;;;;;;9.20;5.87;;;4.60;99.90;;;;;;5035445;28;20411;-54
2023/11/04 03:02:26;;;;;;;6.90;5.00;;;4.70;99.90;;;;;;5019973;28;20303;-55
2023/11/04 03:04:53;;;;;;;5.27;4.37;;;4.70;99.90;;;;;;5026797;28;20227;-53
2023/11/04 03:07:19;;;;;;;13.23;5.43;;;4.70;99.90;;;;;;5028123;28;20226;-55
2023/11/04 03:09:45;;;;;;;6.70;4.77;;;4.70;99.90;;;;;;5030029;28;20504;-56
2023/11/04 03:12:11;;;;;;;4.80;4.07;;;4.70;99.90;;;;;;5023999;28;20441;-55
2023/11/04 03:14:36;;;;;;;4.93;4.23;;;4.70;99.90;;;;;;5024458;28;20282;-54
2023/11/04 03:17:02;;;;;;;5.27;4.33;;;4.70;99.90;;;;;;5034781;28;20670;-55
2023/11/04 03:19:27;;;;;;;5.17;4.07;;;4.80;99.90;;;;;;5039559;28;20187;-56
2023/11/04 03:21:56;;;;;;;5.70;4.60;;;4.80;99.90;;;;;;5034799;28;20262;-56
2023/11/04 03:24:22;;;;;;;5.30;4.50;;;4.80;99.90;;;;;;5025338;28;20171;-56
2023/11/04 03:26:48;;;;;;;6.30;4.47;;;4.80;99.90;;;;;;5026493;28;20501;-55
2023/11/04 03:29:14;;;;;;;11.23;4.90;;;4.80;99.90;;;;;;5038791;28;20434;-57
2023/11/04 03:31:40;;;;;;;4.40;3.90;;;4.80;99.90;;;;;;5036857;28;20179;-56
2023/11/04 03:34:06;;;;;;;4.60;4.10;;;4.80;99.90;;;;;;5032037;28;20499;-56
2023/11/04 03:36:31;;;;;;;7.03;3.90;;;4.80;99.90;;;;;;5028189;28;20985;-54
2023/11/04 03:38:57;;;;;;;8.40;4.17;;;4.80;99.90;;;;;;5027104;28;20172;-54
2023/11/04 03:41:23;;;;;;;4.17;3.53;;;4.90;99.90;;;;;;5033354;28;20167;-54
2023/11/04 03:43:49;;;;;;;3.83;3.40;;;4.90;99.90;;;;;;5033675;28;20865;-55
2023/11/04 03:46:16;;;;;;;4.47;3.20;;;4.90;99.90;;;;;;5026798;28;20186;-55
2023/11/04 03:48:41;;;;;;;4.23;3.77;;;4.90;99.90;;;;;;5030288;28;20414;-53
2023/11/04 03:51:08;;;;;;;4.47;4.00;;;4.90;99.90;;;;;;5028785;28;20186;-55
2023/11/04 03:53:34;;;;;;;4.33;3.80;;;4.90;99.90;;;;;;5023923;28;20215;-54
2023/11/04 03:56:01;;;;;;;4.33;3.40;;;4.90;99.90;;;;;;5019570;28;20439;-56
2023/11/04 03:58:26;;;;;;;6.10;3.60;;;4.90;99.90;;;;;;5030791;28;20444;-56
2023/11/04 04:00:52;;;;;;;4.93;3.00;;;4.90;99.90;;;;;;5027235;28;20501;-53
2023/11/04 04:03:18;;;;;;;6.43;3.60;;;4.90;99.90;;;;;;5021675;28;20186;-50
2023/11/04 04:05:43;;;;;;;4.03;3.60;;;4.90;99.90;;;;;;5023951;28;20600;-54
2023/11/04 04:08:09;;;;;;;3.90;3.60;;;4.90;99.90;;;;;;5025293;28;20619;-54
2023/11/04 04:10:36;;;;;;;3.50;3.20;;;4.90;99.90;;;;;;5024012;28;20176;-56
2023/11/04 04:13:02;;;;;;;4.33;3.40;;;4.90;99.90;;;;;;5028288;28;20673;-54
2023/11/04 04:15:27;;;;;;;4.60;3.60;;;4.90;99.90;;;;;;5038966;28;20405;-54
2023/11/04 04:17:53;;;;;;;4.40;3.60;;;4.90;99.90;;;;;;5021782;28;20188;-56
2023/11/04 04:20:22;;;;;;;3.83;3.47;;;4.90;99.90;;;;;;5029038;28;20195;-55
2023/11/04 04:22:48;;;;;;;3.80;3.40;;;5.00;99.90;;;;;;5028934;28;20608;-56
2023/11/04 04:25:13;;;;;;;4.40;3.07;;;4.90;99.90;;;;;;5032459;28;20439;-55
2023/11/04 04:27:39;;;;;;;4.13;3.43;;;4.90;99.90;;;;;;5025665;28;20479;-54
2023/11/04 04:30:06;;;;;;;3.87;3.13;;;4.90;99.90;;;;;;5030502;28;20274;-55
2023/11/04 04:32:32;;;;;;;4.23;3.10;;;4.90;99.90;;;;;;5031509;28;20421;-55
2023/11/04 04:34:58;;;;;;;4.57;3.30;;;4.90;99.90;;;;;;5026523;28;21075;-54
2023/11/04 04:37:24;;;;;;;4.10;3.23;;;4.90;99.90;;;;;;5041853;28;20198;-55
2023/11/04 04:39:50;;;;;;;4.80;3.90;;;5.00;99.90;;;;;;5029549;28;20431;-55
2023/11/04 04:42:16;;;;;;;4.43;3.40;;;5.00;99.90;;;;;;5032565;28;20213;-54
2023/11/04 04:44:42;;;;;;;4.90;3.30;;;5.00;99.90;;;;;;5035820;28;20432;-56
2023/11/04 04:47:08;;;;;;;3.73;3.37;;;5.00;99.90;;;;;;5032414;28;20980;-58
2023/11/04 04:49:34;;;;;;;3.10;2.90;;;5.00;99.90;;;;;;5041145;28;20422;-56
2023/11/04 04:51:59;;;;;;;4.13;3.13;;;5.00;99.90;;;;;;5022903;28;20191;-55
2023/11/04 04:54:25;;;;;;;4.50;3.60;;;5.00;99.90;;;;;;5025770;28;20215;-57
2023/11/04 04:56:51;;;;;;;4.40;3.17;;;5.00;99.90;;;;;;5037740;28;20210;-56
2023/11/04 04:59:16;;;;;;;6.30;3.37;;;5.00;99.90;;;;;;5030219;28;20247;-58
2023/11/04 05:01:42;;;;;;;5.80;3.70;;;5.00;99.90;;;;;;5039888;28;20167;-55
2023/11/04 05:04:08;;;;;;;4.73;3.60;;;5.00;99.90;;;;;;5030151;28;20188;-56
2023/11/04 05:06:34;;;;;;;3.40;3.03;;;5.00;99.90;;;;;;5029861;28;20204;-56
2023/11/04 05:09:00;;;;;;;4.77;3.27;;;5.00;99.90;;;;;;5030170;28;20488;-57
2023/11/04 05:11:26;;;;;;;3.00;2.80;;;5.00;99.90;;;;;;5037743;28;20471;-55
2023/11/04 05:13:53;;;;;;;3.80;3.10;;;4.90;99.90;;;;;;5036570;28;20458;-54
2023/11/04 05:16:18;;;;;;;3.20;2.90;;;4.90;99.90;;;;;;5030939;28;20426;-55
2023/11/04 05:18:45;;;;;;;3.63;3.13;;;4.90;99.90;;;;;;5032313;28;20493;-58
2023/11/04 05:21:10;;;;;;;4.00;3.30;;;4.90;99.90;;;;;;5033324;28;20267;-56
2023/11/04 05:23:36;;;;;;;3.77;3.23;;;4.90;99.90;;;;;;5030209;28;20521;-58
2023/11/04 05:26:02;;;;;;;3.50;3.10;;;4.80;99.90;;;;;;5027024;28;20180;-56
2023/11/04 05:28:28;;;;;;;10.10;3.20;;;4.80;99.90;;;;;;5036194;28;20195;-57
2023/11/04 05:30:54;;;;;;;4.83;3.53;;;4.80;99.90;;;;;;5035147;28;20484;-58
2023/11/04 05:33:20;;;;;;;4.00;3.60;;;4.80;99.90;;;;;;5031993;28;20681;-55
2023/11/04 05:35:46;;;;;;;4.80;3.50;;;4.80;99.90;;;;;;5028024;28;20434;-58
2023/11/04 05:38:12;;;;;;;3.60;3.30;;;4.70;99.90;;;;;;5029436;28;20200;-60
2023/11/04 05:40:38;;;;;;;3.13;2.80;;;4.70;99.90;;;;;;5030040;28;20435;-60
2023/11/04 05:43:04;;;;;;;3.13;2.83;;;4.70;99.90;;;;;;5042826;28;20426;-59
2023/11/04 05:45:30;;;;;;;3.30;3.00;;;4.70;99.90;;;;;;5031315;28;20530;-59
2023/11/04 05:47:56;;;;;;;2.87;2.67;;;4.70;99.90;;;;;;5025839;28;20619;-60
2023/11/04 05:50:22;;;;;;;3.03;2.70;;;4.60;99.90;;;;;;5033872;28;20210;-54
2023/11/04 05:52:48;;;;;;;4.30;3.30;;;4.60;99.90;;;;;;5027908;28;20258;-54
2023/11/04 05:55:14;;;;;;;8.10;5.20;;;4.60;99.90;;;;;;5026661;28;20222;-54
2023/11/04 05:57:40;;;;;;;4.03;3.70;;;4.60;99.90;;;;;;5029778;28;20446;-54
2023/11/04 06:00:11;;;;;;;5.83;3.77;;;4.60;99.90;;;;;;5032933;28;20411;-55
2023/11/04 06:02:40;;;;;;;4.60;3.37;;;4.50;99.90;;;;;;5031680;28;20567;-58
2023/11/04 06:05:09;;;;;;;3.50;3.17;;;4.50;99.90;;;;;;5033694;28;20794;-55
2023/11/04 06:07:36;;;;;;;5.00;3.00;;;4.50;99.90;;;;;;5025147;28;20453;-55
2023/11/04 06:10:02;;;;;;;3.50;3.20;;;4.50;99.90;;;;;;5027830;28;22331;-54
2023/11/04 06:12:28;;;;;;;4.20;3.80;;;4.50;99.90;;;;;;5034259;28;20863;-55
2023/11/04 06:14:53;;;;;;;4.70;3.77;;;4.50;99.90;;;;;;5037110;28;20557;-54
2023/11/04 06:17:19;;;;;;;4.23;3.57;;;4.50;99.90;;;;;;5037501;28;20203;-56
2023/11/04 06:19:45;;;;;;;4.17;3.57;;;4.50;99.90;;;;;;5032963;28;20176;-56
2023/11/04 06:22:11;;;;;;;3.40;3.13;;;4.50;99.90;;;;;;5030719;28;20172;-54
2023/11/04 06:24:39;;;;;;;3.80;3.40;;;4.50;99.90;;;;;;5022272;28;20267;-55
2023/11/04 06:27:06;;;;;;;3.60;3.30;;;4.40;99.90;;;;;;5031104;28;20540;-57
2023/11/04 06:29:32;;;;;;;3.57;3.27;;;4.40;99.90;;;;;;5039392;28;20896;-57
2023/11/04 06:31:57;;;;;;;3.83;3.47;;;4.40;99.90;;;;;;5029574;28;20511;-58
2023/11/04 06:34:23;;;;;;;4.53;3.00;;;4.40;99.90;;;;;;5028365;28;20219;-55
2023/11/04 06:36:50;;;;;;;3.60;3.30;;;4.40;99.90;;;;;;5028297;28;20195;-58
2023/11/04 06:39:16;;;;;;;4.00;3.40;;;4.50;99.90;;;;;;5030691;28;20262;-60
2023/11/04 06:41:43;;;;;;;5.07;3.60;;;4.50;99.90;;;;;;5026233;28;21071;-54
2023/11/04 06:44:09;;;;;;;3.60;3.17;;;4.40;99.90;;;;;;5024986;28;20172;-54
2023/11/04 06:46:34;;;;;;;2.93;2.70;;;4.50;99.90;;;;;;5032391;28;20443;-54
2023/11/04 06:49:00;;;;;;;4.90;3.00;;;4.50;99.90;;;;;;5030023;28;20241;-57
2023/11/04 06:51:26;;;;;;;4.20;2.60;;;4.60;99.90;;;;;;5029396;28;20674;-54
2023/11/04 06:53:55;;;;;;;4.77;3.23;;;4.60;99.90;;;;;;5024871;28;20207;-56
2023/11/04 06:56:24;;;;;;;3.77;2.87;;;4.60;99.90;;;;;;5029159;28;20438;-56
2023/11/04 06:58:52;;;;;;;3.00;2.70;;;4.60;99.90;;;;;;5037590;28;20428;-55
2023/11/04 07:01:19;;;;;;;3.47;2.70;;;4.60;99.90;;;;;;5029018;28;20879;-56
2023/11/04 07:03:47;;;;;;;4.97;2.40;;;4.70;99.90;;;;;;5024518;28;20444;-58
2023/11/04 07:06:14;;;;;;;6.93;2.70;;;4.70;99.90;;;;;;5029116;28;20485;-56
2023/11/04 07:08:40;;;;;;;3.40;2.53;;;4.70;99.90;;;;;;5032366;28;20437;-58
2023/11/04 07:11:05;;;;;;;2.43;2.07;;;4.80;99.90;;;;;;5029964;28;20502;-56
2023/11/04 07:13:32;;;;;;;2.80;2.60;;;4.80;99.90;;;;;;5028300;28;20548;-55
2023/11/04 07:15:57;;;;;;;3.10;2.30;;;4.80;99.90;;;;;;5028485;28;20182;-56
2023/11/04 07:18:23;;;;;;;4.00;2.80;;;4.80;99.90;;;;;;5033687;28;20453;-59
2023/11/04 07:20:50;;;;;;;2.80;2.60;;;4.90;99.90;;;;;;5022981;28;20271;-57
2023/11/04 07:23:17;;;;;;;2.80;2.50;;;4.90;99.90;;;;;;5031070;28;20183;-55
2023/11/04 07:25:44;;;;;;;4.00;2.47;;;4.90;99.90;;;;;;5031613;28;20418;-60
2023/11/04 07:28:10;;;;;;;3.57;2.90;;;5.00;99.90;;;;;;5026923;28;20968;-55
2023/11/04 07:30:36;;;;;;;2.53;2.33;;;5.10;99.90;;;;;;5030091;28;20445;-57
2023/11/04 07:33:02;;;;;;;2.63;2.43;;;5.10;99.90;;;;;;5036547;28;20422;-58
2023/11/04 07:35:27;;;;;;;3.27;2.97;;;5.10;99.90;;;;;;5031121;28;20939;-59
2023/11/04 07:37:54;;;;;;;4.23;2.53;;;5.20;99.90;;;;;;5023651;28;20199;-55
2023/11/04 07:40:20;;;;;;;2.93;2.63;;;5.20;99.90;;;;;;5029769;28;20801;-54
2023/11/04 07:42:46;;;;;;;3.37;2.33;;;5.20;99.90;;;;;;5024922;28;20427;-60
2023/11/04 07:45:12;;;;;;;2.03;1.83;;;5.20;99.90;;;;;;5031193;28;20787;-55
2023/11/04 07:47:42;;;;;;;2.30;2.20;;;5.20;99.90;;;;;;5029305;28;20846;-55
2023/11/04 07:50:10;;;;;;;3.37;2.83;;;5.20;99.90;;;;;;5026429;28;20434;-58
2023/11/04 07:52:41;;;;;;;3.00;2.60;;;5.30;99.90;;;;;;5033061;28;20413;-57
2023/11/04 07:55:08;;;;;;;3.00;2.60;;;5.30;99.90;;;;;;5033315;28;21106;-55
2023/11/04 07:57:35;;;;;;;2.90;2.70;;;5.30;99.90;;;;;;5036875;28;20468;-55
2023/11/04 08:00:07;;;;;;;2.10;2.00;;;5.40;99.90;;;;;;5027440;28;20421;-54
2023/11/04 08:02:33;;;;;;;6.50;2.23;;;5.40;99.90;;;;;;5025744;28;20428;-57
2023/11/04 08:05:02;;;;;;;2.93;2.50;;;5.40;99.90;;;;;;5017807;28;20924;-57
2023/11/04 08:07:29;;;;;;;2.80;2.60;;;5.40;99.90;;;;;;5019872;28;20447;-55
2023/11/04 08:09:55;;;;;;;4.77;3.30;;;5.40;99.90;;;;;;5019888;28;20438;-56
2023/11/04 08:12:21;;;;;;;3.53;3.23;;;5.40;99.90;;;;;;5028363;28;20444;-57
2023/11/04 08:14:47;;;;;;;2.60;2.40;;;5.40;99.90;;;;;;5020577;28;20462;-53
2023/11/04 08:17:13;;;;;;;3.50;2.57;;;5.40;99.90;;;;;;5028617;28;20452;-56
2023/11/04 08:19:39;;;;;;;2.00;1.90;;;5.50;99.90;;;;;;5033981;28;20645;-54
2023/11/04 08:22:05;;;;;;;2.37;2.10;;;5.50;99.90;;;;;;5027667;28;20237;-55
2023/11/04 08:24:31;;;;;;;2.90;1.70;;;5.50;99.90;;;;;;5032027;28;20964;-51
2023/11/04 08:26:57;;;;;;;4.00;3.10;;;5.60;99.90;;;;;;5033045;28;20570;-58
2023/11/04 08:29:23;;;;;;;5.60;2.60;;;5.60;99.90;;;;;;5023589;28;20443;-58
2023/11/04 08:31:49;;;;;;;3.87;2.43;;;5.60;99.90;;;;;;5031517;28;20650;-59
2023/11/04 08:34:14;;;;;;;2.80;2.30;;;5.60;99.90;;;;;;5034396;28;20222;-57
2023/11/04 08:36:40;;;;;;;2.40;2.20;;;5.70;99.90;;;;;;5033485;28;20438;-58
2023/11/04 08:39:09;;;;;;;2.53;2.33;;;5.70;99.90;;;;;;5025745;28;20282;-57
2023/11/04 08:41:35;;;;;;;2.93;2.30;;;5.70;99.90;;;;;;5024607;28;20458;-58
2023/11/04 08:44:01;;;;;;;2.90;1.97;;;5.70;99.90;;;;;;5018255;28;20478;-59
2023/11/04 08:46:27;;;;;;;2.30;2.10;;;5.80;99.90;;;;;;5027879;28;20446;-57
2023/11/04 08:48:52;;;;;;;3.20;2.90;;;5.80;99.90;;;;;;5018392;28;20176;-57
2023/11/04 08:51:18;;;;;;;2.50;2.30;;;5.90;99.90;;;;;;5027166;28;20717;-57
2023/11/04 08:53:44;;;;;;;2.97;2.27;;;5.90;99.90;;;;;;5016382;28;20219;-59
2023/11/04 08:56:09;;;;;;;3.50;2.60;;;6.00;99.90;;;;;;5033967;28;20196;-54
2023/11/04 08:58:35;;;;;;;2.97;2.70;;;6.00;99.90;;;;;;5029635;28;20176;-57
2023/11/04 09:01:02;;;;;;;2.57;2.20;;;6.10;99.90;;;;;;5027452;28;20179;-55
2023/11/04 09:03:27;;;;;;;2.93;2.63;;;6.20;99.90;;;;;;5016848;28;20557;-57
2023/11/04 09:05:54;;;;;;;6.47;2.60;;;6.30;99.90;;;;;;5021300;28;20446;-57
2023/11/04 09:08:20;;;;;;;2.50;2.30;;;6.50;99.90;;;;;;5016460;28;20212;-57
2023/11/04 09:10:47;;;;;;;3.03;2.43;;;6.50;99.90;;;;;;5019803;28;20441;-57
2023/11/04 09:13:13;;;;;;;2.17;2.00;;;6.60;99.90;;;;;;5023306;28;20203;-56
2023/11/04 09:15:39;;;;;;;1.60;1.50;;;6.70;99.90;;;;;;5022836;28;20953;-56
2023/11/04 09:18:06;;;;;;;1.50;1.40;;;6.70;99.90;;;;;;5017060;28;20493;-59
2023/11/04 09:20:31;;;;;;;2.00;1.90;;;6.80;99.90;;;;;;5021963;28;20446;-56
2023/11/04 09:22:57;;;;;;;2.00;1.90;;;6.80;99.90;;;;;;5027663;28;20488;-61
2023/11/04 09:25:23;;;;;;;1.70;1.60;;;6.80;99.90;;;;;;5038756;28;20252;-57
2023/11/04 09:27:49;;;;;;;2.03;1.73;;;6.80;99.90;;;;;;5036350;28;20988;-56
2023/11/04 09:30:16;;;;;;;1.90;1.80;;;6.80;99.90;;;;;;5038536;28;20211;-59
2023/11/04 09:32:42;;;;;;;3.40;1.93;;;6.80;99.90;;;;;;5028327;28;20446;-58
2023/11/04 09:35:08;;;;;;;1.60;1.50;;;6.70;99.90;;;;;;5024980;28;20531;-60
2023/11/04 09:37:34;;;;;;;1.67;1.57;;;6.80;99.90;;;;;;5023912;28;20287;-62
2023/11/04 09:40:00;;;;;;;3.00;2.07;;;6.70;99.90;;;;;;5026413;28;20949;-60
2023/11/04 09:42:30;;;;;;;1.80;1.70;;;6.70;99.90;;;;;;5035464;28;20441;-58
2023/11/04 09:44:57;;;;;;;1.50;1.33;;;6.70;99.90;;;;;;5028847;28;20706;-61
2023/11/04 09:47:23;;;;;;;3.10;1.90;;;6.60;99.90;;;;;;5030923;28;20556;-56
2023/11/04 09:49:49;;;;;;;2.07;1.83;;;6.60;99.90;;;;;;5029994;28;20484;-62
2023/11/04 09:52:16;;;;;;;3.97;1.70;;;6.70;99.90;;;;;;5024651;28;20450;-58
2023/11/04 09:54:46;;;;;;;2.63;1.53;;;6.70;99.90;;;;;;5021151;28;20472;-56
2023/11/04 09:57:13;;;;;;;2.60;2.00;;;6.70;99.90;;;;;;5031007;28;20576;-59
2023/11/04 09:59:40;;;;;;;4.23;2.30;;;6.70;99.90;;;;;;5026878;28;20462;-55
2023/11/04 10:02:10;;;;;;;4.60;3.50;;;6.70;99.90;;;;;;5024661;28;20477;-59
2023/11/04 10:04:36;;;;;;;4.70;3.20;;;6.70;99.90;;;;;;5032486;28;20448;-62
2023/11/04 10:07:02;;;;;;;5.30;2.70;;;6.80;99.90;;;;;;5024261;28;20541;-56
2023/11/04 10:09:28;;;;;;;1.60;1.50;;;6.80;99.90;;;;;;5035232;28;20541;-56
2023/11/04 10:11:54;;;;;;;2.00;1.80;;;6.80;99.90;;;;;;5030292;28;20882;-56
2023/11/04 10:14:23;;;;;;;3.70;1.97;;;6.80;99.90;;;;;;5023784;28;20677;-54
2023/11/04 10:16:49;;;;;;;1.60;1.50;;;6.80;99.90;;;;;;5022409;28;20204;-57
2023/11/04 10:19:14;;;;;;;3.60;1.60;;;6.70;99.90;;;;;;5026360;28;20430;-54
2023/11/04 10:21:41;;;;;;;3.30;2.27;;;6.70;99.90;;;;;;5025664;28;20180;-58
2023/11/04 10:24:08;;;;;;;3.40;2.10;;;6.70;99.90;;;;;;5026774;28;20219;-57
2023/11/04 10:26:34;;;;;;;3.60;2.37;;;6.70;99.90;;;;;;5036049;28;20466;-59
2023/11/04 10:28:59;;;;;;;2.10;1.80;;;6.70;99.90;;;;;;5025357;28;20444;-56
2023/11/04 10:31:25;;;;;;;2.07;1.63;;;6.70;99.90;;;;;;5022927;28;20433;-61
2023/11/04 10:33:58;;;;;;;2.40;1.33;;;6.70;99.90;;;;;;5014818;28;20578;-59
2023/11/04 10:36:23;;;;;;;3.13;1.80;;;6.70;99.90;;;;;;5022000;28;20435;-60
2023/11/04 10:38:57;;;;;;;4.20;1.80;;;6.70;99.90;;;;;;5021180;28;20949;-61
2023/11/04 10:41:42;;;;;;;3.37;1.87;;;6.60;99.90;;;;;;5022456;28;20258;-58
2023/11/04 10:44:28;;;;;;;3.97;2.80;;;6.60;99.90;;;;;;5022136;28;20941;-60
2023/11/04 10:47:22;;;;;;;3.63;3.33;;;6.60;99.90;;;;;;5009249;28;20451;-61
2023/11/04 10:50:05;;;;;;;3.37;2.30;;;6.60;99.90;;;;;;5049485;22;20949;-62
2023/11/04 10:52:37;;;;;;;3.10;2.17;;;6.60;99.90;;;;;;5037936;28;20430;-62
2023/11/04 10:55:12;;;;;;;3.37;2.20;;;6.70;99.90;;;;;;5048325;28;20453;-62
2023/11/04 10:58:02;;;;;;;3.20;2.20;;;6.80;99.90;;;;;;5049844;28;20429;-62
2023/11/04 11:00:28;;;;;;;2.40;2.10;;;6.90;99.90;;;;;;5056892;28;20461;-62
2023/11/04 11:02:55;;;;;;;2.20;2.00;;;7.00;99.90;;;;;;5056719;28;20433;-62
2023/11/04 11:05:23;;;;;;;4.33;1.90;;;7.20;99.90;;;;;;5064839;28;20433;-62
2023/11/04 11:07:49;;;;;;;4.83;2.10;;;7.30;99.90;;;;;;5065761;28;20424;-62
2023/11/04 11:10:19;;;;;;;7.67;3.23;;;7.50;99.90;;;;;;5065763;28;20452;-62
2023/11/04 11:13:21;;;;;;;4.00;1.97;;;7.60;99.90;;;;;;5063257;28;20257;-61
2023/11/04 11:15:48;;;;;;;1.30;1.20;;;7.70;99.90;;;;;;5021653;28;20874;-62
2023/11/04 11:18:25;;;;;;;2.13;1.80;;;7.80;99.90;;;;;;5050828;28;20418;-60
2023/11/04 11:20:51;;;;;;;2.03;1.77;;;7.80;99.90;;;;;;5066090;28;20849;-63
2023/11/04 11:23:28;;;;;;;2.60;2.03;;;7.90;99.90;;;;;;5067626;28;20413;-61
2023/11/04 11:26:15;;;;;;;1.50;1.40;;;8.00;99.90;;;;;;5063096;28;20189;-60
2023/11/04 11:28:41;;;;;;;1.87;1.70;;;8.10;99.90;;;;;;5064475;28;20430;-61
2023/11/04 11:31:11;;;;;;;1.83;1.67;;;8.10;99.90;;;;;;5061787;28;20975;-61
2023/11/04 11:33:39;;;;;;;4.60;2.70;;;8.10;99.90;;;;;;5065683;28;20530;-61
2023/11/04 11:36:07;;;;;;;2.00;1.80;;;8.10;99.90;;;;;;5066050;28;20694;-61
2023/11/04 11:38:35;;;;;;;4.43;3.23;;;8.10;99.90;;;;;;5065024;28;20454;-62
2023/11/04 11:41:10;;;;;;;2.33;2.00;;;8.10;99.90;;;;;;5066898;28;20448;-61
2023/11/04 11:43:36;;;;;;;3.93;2.27;;;8.20;99.90;;;;;;5065360;28;21017;-61
2023/11/04 11:46:04;;;;;;;2.30;1.87;;;8.20;99.90;;;;;;5055063;28;20947;-61
2023/11/04 11:48:37;;;;;;;1.80;1.70;;;8.10;99.90;;;;;;5064787;28;20409;-61
2023/11/04 11:51:11;;;;;;;2.37;1.90;;;8.10;99.90;;;;;;5062766;28;20540;-61
2023/11/04 11:53:46;;;;;;;1.87;1.77;;;8.10;99.90;;;;;;5066954;28;20463;-61
2023/11/04 11:56:12;;;;;;;3.47;2.30;;;8.00;99.90;;;;;;5066746;28;20430;-62
2023/11/04 11:58:39;;;;;;;2.03;1.50;;;7.90;99.90;;;;;;5066120;28;20459;-61
2023/11/04 12:01:06;;;;;;;3.37;1.83;;;7.90;99.90;;;;;;5062462;28;20501;-62
2023/11/04 12:03:34;;;;;;;2.10;1.70;;;7.90;99.90;;;;;;5062721;28;20536;-62
2023/11/04 12:06:00;;;;;;;1.50;1.40;;;7.90;99.90;;;;;;5064594;28;21107;-62
2023/11/04 12:08:26;;;;;;;2.80;2.10;;;7.80;99.90;;;;;;5062952;28;20455;-61
2023/11/04 12:10:52;;;;;;;1.53;1.43;;;7.80;99.90;;;;;;5063196;28;20448;-62
2023/11/04 12:13:17;;;;;;;3.00;2.10;;;7.80;99.90;;;;;;5059874;28;20265;-62
2023/11/04 12:15:45;;;;;;;4.73;2.53;;;7.80;99.90;;;;;;5065570;28;20257;-62
2023/11/04 12:18:14;;;;;;;4.20;2.90;;;7.80;99.90;;;;;;5057952;28;20170;-62
2023/11/04 12:20:44;;;;;;;7.57;4.00;;;7.80;99.90;;;;;;5062640;28;20448;-62
2023/11/04 12:23:11;;;;;;;7.57;4.27;;;7.80;99.90;;;;;;5064364;28;20512;-62
2023/11/04 12:25:38;;;;;;;6.47;3.60;;;7.80;99.90;;;;;;5067774;28;20405;-61
2023/11/04 12:28:06;;;;;;;6.77;3.33;;;7.70;99.90;;;;;;5063801;28;20558;-61
2023/11/04 12:30:32;;;;;;;3.17;2.50;;;7.70;99.90;;;;;;5066700;28;20512;-61
2023/11/04 12:32:59;;;;;;;2.80;2.30;;;7.70;99.90;;;;;;5066096;28;20508;-61
2023/11/04 12:35:25;;;;;;;1.80;1.63;;;7.70;99.90;;;;;;5065045;28;20471;-61
2023/11/04 12:37:53;;;;;;;2.87;2.60;;;7.60;99.90;;;;;;5065163;28;20420;-61
2023/11/04 12:40:20;;;;;;;2.17;1.87;;;7.50;99.90;;;;;;5061815;28;20557;-61
2023/11/04 12:42:47;;;;;;;1.97;1.87;;;7.50;99.90;;;;;;5061097;28;20458;-62
2023/11/04 12:45:13;;;;;;;2.00;1.80;;;7.50;99.90;;;;;;5064871;28;20933;-61
2023/11/04 12:47:40;;;;;;;4.20;1.87;;;7.40;99.90;;;;;;5061233;28;20436;-64
2023/11/04 12:50:06;;;;;;;2.00;1.80;;;7.40;99.90;;;;;;5048101;28;20471;-63
2023/11/04 12:52:32;;;;;;;3.50;1.77;;;7.40;99.90;;;;;;5053002;28;20490;-62
2023/11/04 12:54:58;;;;;;;7.10;2.77;;;7.30;99.90;;;;;;5061659;28;20471;-62